createdAt,value
2019-05-14T00:00:24.894Z,8.40
2019-05-14T00:02:53.303Z,8.40
2019-05-14T00:05:21.636Z,8.30
2019-05-14T00:07:52.140Z,8.30
2019-05-14T00:10:21.812Z,8.30
2019-05-14T00:12:51.283Z,8.30
2019-05-14T00:15:21.682Z,8.20
2019-05-14T00:17:52.043Z,8.20
2019-05-14T00:20:22.423Z,8.20
2019-05-14T00:22:52.035Z,8.20
2019-05-14T00:25:19.308Z,8.10
2019-05-14T00:27:47.126Z,8.20
2019-05-14T00:30:15.441Z,8.20
2019-05-14T00:32:43.244Z,8.20
2019-05-14T00:35:11.516Z,8.30
2019-05-14T00:37:41.286Z,8.50
2019-05-14T00:40:11.588Z,8.70
2019-05-14T00:42:41.132Z,8.80
2019-05-14T00:45:11.527Z,8.90
2019-05-14T00:47:41.577Z,8.90
2019-05-14T00:50:11.118Z,8.90
2019-05-14T00:52:38.836Z,8.90
2019-05-14T00:55:07.809Z,8.90
2019-05-14T00:57:35.964Z,8.80
2019-05-14T01:00:04.186Z,8.70
2019-05-14T01:02:32.115Z,8.70
2019-05-14T01:05:01.825Z,8.60
2019-05-14T01:07:31.613Z,8.60
2019-05-14T01:10:01.284Z,8.50
2019-05-14T01:12:29.220Z,8.60
2019-05-14T01:15:07.799Z,8.50
2019-05-14T01:17:26.750Z,8.40
2019-05-14T01:19:54.632Z,8.30
2019-05-14T01:22:22.750Z,8.20
2019-05-14T01:24:52.180Z,8.20
2019-05-14T01:27:21.141Z,8.20
2019-05-14T01:29:51.202Z,8.10
2019-05-14T01:32:21.929Z,8.10
2019-05-14T01:34:51.977Z,8.10
2019-05-14T01:37:21.849Z,8.10
2019-05-14T01:39:52.012Z,8.00
2019-05-14T01:42:21.589Z,7.90
2019-05-14T01:44:51.697Z,7.80
2019-05-14T01:47:21.355Z,7.80
2019-05-14T01:49:51.521Z,7.80
2019-05-14T01:52:21.600Z,7.80
2019-05-14T01:54:51.316Z,7.70
2019-05-14T01:57:19.099Z,7.80
2019-05-14T01:59:47.247Z,7.70
2019-05-14T02:02:15.154Z,7.80
2019-05-14T02:04:43.317Z,7.90
2019-05-14T02:07:11.818Z,7.90
2019-05-14T02:09:42.050Z,7.90
2019-05-14T02:12:11.767Z,7.90
2019-05-14T02:14:42.139Z,7.90
2019-05-14T02:17:09.290Z,7.80
2019-05-14T02:19:37.563Z,7.60
2019-05-14T02:22:05.812Z,7.40
2019-05-14T02:24:34.025Z,7.40
2019-05-14T02:27:02.010Z,7.50
2019-05-14T02:29:31.977Z,7.50
2019-05-14T02:32:00.060Z,7.50
2019-05-14T02:34:29.965Z,7.50
2019-05-14T02:37:00.440Z,7.50
2019-05-14T02:39:29.234Z,7.60
2019-05-14T02:41:58.966Z,7.60
2019-05-14T02:44:29.887Z,7.60
2019-05-14T02:46:59.259Z,7.70
2019-05-14T02:49:29.693Z,7.70
2019-05-14T02:51:59.094Z,7.60
2019-05-14T02:54:29.667Z,7.50
2019-05-14T02:56:59.881Z,7.50
2019-05-14T02:59:30.631Z,7.40
2019-05-14T03:01:59.147Z,7.40
2019-05-14T03:04:30.019Z,7.50
2019-05-14T03:06:59.227Z,7.50
2019-05-14T03:09:29.428Z,7.50
2019-05-14T03:11:59.503Z,7.40
2019-05-14T03:14:30.157Z,7.40
2019-05-14T03:16:59.481Z,7.40
2019-05-14T03:19:29.766Z,7.30
2019-05-14T03:22:00.264Z,7.30
2019-05-14T03:24:28.936Z,7.30
2019-05-14T03:26:58.695Z,7.20
2019-05-14T03:29:30.408Z,7.20
2019-05-14T03:32:02.555Z,7.20
2019-05-14T03:34:32.353Z,7.20
2019-05-14T03:37:03.017Z,7.10
2019-05-14T03:39:29.531Z,7.20
2019-05-14T03:41:59.086Z,7.10
2019-05-14T03:44:29.194Z,7.10
2019-05-14T03:47:03.932Z,7.10
2019-05-14T03:49:28.818Z,7.10
2019-05-14T03:52:00.411Z,7.00
2019-05-14T03:54:29.814Z,7.00
2019-05-14T03:57:00.381Z,6.90
2019-05-14T03:59:29.325Z,6.90
2019-05-14T04:01:59.899Z,6.90
2019-05-14T04:04:29.881Z,6.90
2019-05-14T04:07:01.619Z,6.80
2019-05-14T04:09:33.788Z,6.80
2019-05-14T04:12:09.730Z,6.80
2019-05-14T04:14:41.286Z,6.90
2019-05-14T04:17:15.867Z,6.80
2019-05-14T04:19:49.851Z,6.80
2019-05-14T04:22:29.862Z,6.80
2019-05-14T04:25:10.562Z,6.80
2019-05-14T04:27:45.435Z,6.80
2019-05-14T04:30:24.056Z,6.80
2019-05-14T04:33:10.374Z,6.80
2019-05-14T04:35:42.107Z,6.90
2019-05-14T04:38:11.674Z,6.90
2019-05-14T04:40:40.079Z,6.90
2019-05-14T04:43:11.231Z,7.00
2019-05-14T04:45:40.275Z,7.00
2019-05-14T04:48:27.116Z,7.10
2019-05-14T04:50:40.664Z,7.10
2019-05-14T04:53:10.092Z,7.20
2019-05-14T04:55:40.103Z,7.20
2019-05-14T04:58:10.047Z,7.30
2019-05-14T05:00:39.110Z,7.30
2019-05-14T05:03:11.760Z,7.30
2019-05-14T05:05:39.397Z,7.40
2019-05-14T05:08:09.068Z,7.50
2019-05-14T05:10:36.262Z,7.40
2019-05-14T05:13:04.266Z,7.40
2019-05-14T05:15:32.160Z,7.50
2019-05-14T05:18:00.489Z,7.50
2019-05-14T05:20:29.349Z,7.50
2019-05-14T05:22:59.072Z,7.50
2019-05-14T05:25:29.093Z,7.60
2019-05-14T05:27:59.663Z,7.70
2019-05-14T05:30:26.525Z,7.90
2019-05-14T05:32:54.722Z,8.10
2019-05-14T05:35:22.629Z,8.10
2019-05-14T05:37:50.486Z,8.10
2019-05-14T05:40:19.730Z,8.30
2019-05-14T05:42:49.028Z,8.30
2019-05-14T05:45:18.600Z,8.30
2019-05-14T05:47:55.240Z,8.10
2019-05-14T05:50:19.132Z,8.00
2019-05-14T05:52:49.139Z,8.00
2019-05-14T05:55:18.982Z,8.00
2019-05-14T05:57:46.381Z,8.00
2019-05-14T06:00:19.287Z,8.10
2019-05-14T06:02:48.952Z,8.10
2019-05-14T06:05:18.674Z,8.20
2019-05-14T06:07:48.263Z,8.30
2019-05-14T06:10:18.740Z,8.50
2019-05-14T06:12:49.112Z,8.70
2019-05-14T06:15:19.246Z,8.90
2019-05-14T06:17:49.049Z,8.90
2019-05-14T06:20:18.790Z,8.90
2019-05-14T06:22:46.039Z,8.90
2019-05-14T06:25:13.637Z,9.00
2019-05-14T06:27:41.233Z,9.20
2019-05-14T06:30:09.456Z,9.20
2019-05-14T06:32:38.640Z,9.30
2019-05-14T06:35:08.790Z,9.40
2019-05-14T06:37:38.478Z,9.50
2019-05-14T06:40:08.823Z,9.60
2019-05-14T06:42:39.180Z,9.80
2019-05-14T06:45:08.831Z,9.70
2019-05-14T06:47:38.274Z,9.50
2019-05-14T06:50:08.300Z,9.80
2019-05-14T06:52:35.472Z,9.80
2019-05-14T06:55:03.180Z,9.60
2019-05-14T06:57:30.781Z,9.80
2019-05-14T06:59:58.875Z,9.90
2019-05-14T07:02:28.505Z,9.90
2019-05-14T07:04:55.987Z,10.00
2019-05-14T07:07:23.589Z,10.10
2019-05-14T07:09:51.575Z,10.30
2019-05-14T07:12:19.508Z,10.20
2019-05-14T07:14:48.196Z,10.20
2019-05-14T07:17:18.331Z,10.40
2019-05-14T07:19:46.043Z,10.70
2019-05-14T07:22:13.611Z,11.00
2019-05-14T07:24:41.518Z,10.80
2019-05-14T07:27:09.603Z,10.70
2019-05-14T07:29:38.800Z,11.10
2019-05-14T07:32:09.003Z,11.20
2019-05-14T07:34:38.636Z,11.00
2019-05-14T07:37:05.951Z,10.80
2019-05-14T07:39:33.555Z,10.80
2019-05-14T07:42:02.411Z,11.10
2019-05-14T07:44:30.454Z,11.20
2019-05-14T07:46:58.981Z,11.30
2019-05-14T07:49:28.878Z,11.40
2019-05-14T07:51:58.585Z,11.60
2019-05-14T07:54:28.158Z,11.90
2019-05-14T07:56:55.386Z,11.80
2019-05-14T07:59:23.129Z,12.00
2019-05-14T08:01:51.544Z,12.10
2019-05-14T08:04:20.047Z,12.20
2019-05-14T08:06:48.730Z,12.40
2019-05-14T08:09:18.803Z,12.60
2019-05-14T08:11:48.073Z,12.40
2019-05-14T08:14:18.365Z,12.60
2019-05-14T08:16:45.484Z,12.80
2019-05-14T08:19:24.327Z,12.90
2019-05-14T08:21:43.206Z,12.50
2019-05-14T08:24:10.928Z,12.60
2019-05-14T08:26:42.993Z,12.80
2019-05-14T08:29:08.762Z,13.00
2019-05-14T08:31:38.313Z,12.70
2019-05-14T08:34:06.711Z,12.90
2019-05-14T08:36:37.799Z,12.90
2019-05-14T08:39:06.087Z,13.10
2019-05-14T08:41:34.119Z,13.30
2019-05-14T08:47:03.069Z,13.50
2019-05-14T08:49:41.883Z,13.50
2019-05-14T08:52:00.118Z,13.40
2019-05-14T08:54:28.446Z,13.20
2019-05-14T08:56:58.318Z,13.30
2019-05-14T08:59:25.585Z,13.40
2019-05-14T09:02:02.432Z,13.00
2019-05-14T09:04:23.094Z,13.10
2019-05-14T09:06:50.740Z,13.80
2019-05-14T09:09:20.307Z,13.90
2019-05-14T09:11:50.447Z,14.10
2019-05-14T09:14:18.847Z,13.60
2019-05-14T09:16:50.654Z,13.40
2019-05-14T09:19:16.165Z,13.30
2019-05-14T09:21:43.811Z,13.80
2019-05-14T09:24:11.390Z,13.70
2019-05-14T09:26:39.229Z,13.70
2019-05-14T09:29:19.384Z,13.50
2019-05-14T09:31:38.787Z,13.30
2019-05-14T09:34:08.497Z,13.30
2019-05-14T09:36:35.763Z,13.60
2019-05-14T09:39:05.503Z,14.10
2019-05-14T09:41:41.512Z,14.10
2019-05-14T09:44:09.466Z,13.90
2019-05-14T09:46:38.468Z,13.80
2019-05-14T09:49:08.016Z,14.10
2019-05-14T09:51:38.133Z,13.70
2019-05-14T09:54:05.545Z,13.40
2019-05-14T09:56:33.175Z,13.50
2019-05-14T09:59:00.767Z,13.70
2019-05-14T10:04:10.948Z,14.90
2019-05-14T10:06:39.349Z,15.00
2019-05-14T10:09:08.595Z,14.60
2019-05-14T10:11:38.209Z,14.50
2019-05-14T10:14:07.920Z,14.80
2019-05-14T10:16:35.347Z,14.70
2019-05-14T10:19:02.959Z,15.00
2019-05-14T10:21:30.544Z,14.90
2019-05-14T10:23:58.531Z,15.20
2019-05-14T10:26:28.700Z,15.80
2019-05-14T10:28:55.642Z,15.60
2019-05-14T10:31:24.030Z,15.60
2019-05-14T10:33:51.598Z,15.50
2019-05-14T10:36:19.579Z,15.40
2019-05-14T10:38:47.171Z,15.60
2019-05-14T10:41:14.865Z,15.50
2019-05-14T10:43:42.663Z,15.70
2019-05-14T10:46:10.251Z,15.60
2019-05-14T10:48:39.535Z,15.60
2019-05-14T10:51:09.645Z,15.70
2019-05-14T10:53:37.055Z,15.40
2019-05-14T10:56:04.447Z,15.70
2019-05-14T10:58:32.501Z,15.60
2019-05-14T11:01:01.099Z,15.50
2019-05-14T11:12:43.311Z,15.20
2019-05-14T11:15:11.150Z,15.40
2019-05-14T11:17:40.638Z,15.90
2019-05-14T11:20:08.573Z,16.20
2019-05-14T11:25:29.849Z,15.80
2019-05-14T11:27:58.638Z,16.00
2019-05-14T11:30:28.609Z,16.10
2019-05-14T11:32:58.214Z,16.30
2019-05-14T11:35:25.376Z,16.50
2019-05-14T11:37:53.233Z,16.00
2019-05-14T11:40:21.265Z,16.20
2019-05-14T11:42:49.531Z,16.70
2019-05-14T11:45:18.742Z,16.80
2019-05-14T11:47:48.696Z,16.90
2019-05-14T11:50:19.078Z,16.60
2019-05-14T11:52:48.268Z,16.40
2019-05-14T11:55:18.496Z,16.50
2019-05-14T11:57:45.355Z,16.80
2019-05-14T12:00:13.461Z,16.80
2019-05-14T12:02:41.440Z,16.90
2019-05-14T12:05:09.079Z,16.90
2019-05-14T12:07:38.636Z,16.90
2019-05-14T12:10:09.080Z,17.00
2019-05-14T12:12:37.085Z,16.90
2019-05-14T12:15:05.763Z,16.90
2019-05-14T12:17:33.295Z,17.00
2019-05-14T12:20:01.023Z,17.00
2019-05-14T12:22:28.819Z,17.20
2019-05-14T12:24:58.395Z,17.00
2019-05-14T12:27:25.829Z,17.40
2019-05-14T12:29:53.755Z,17.50
2019-05-14T12:32:21.325Z,17.40
2019-05-14T12:34:49.232Z,17.30
2019-05-14T12:37:18.585Z,17.50
2019-05-14T12:39:46.734Z,17.40
2019-05-14T12:42:14.317Z,17.30
2019-05-14T12:44:42.198Z,17.20
2019-05-14T12:47:11.072Z,17.40
2019-05-14T12:49:39.012Z,17.40
2019-05-14T12:52:21.028Z,17.50
2019-05-14T12:54:38.852Z,17.40
2019-05-14T12:57:05.970Z,17.70
2019-05-14T12:59:33.634Z,17.40
2019-05-14T13:02:01.502Z,17.30
2019-05-14T13:04:29.091Z,17.20
2019-05-14T13:06:59.521Z,17.10
2019-05-14T13:09:25.985Z,17.30
2019-05-14T13:11:53.954Z,17.80
2019-05-14T13:14:21.911Z,18.00
2019-05-14T13:16:49.552Z,18.00
2019-05-14T13:19:19.007Z,18.00
2019-05-14T13:21:50.558Z,18.00
2019-05-14T13:24:18.198Z,18.30
2019-05-14T13:26:46.185Z,18.60
2019-05-14T13:29:13.900Z,18.30
2019-05-14T13:31:41.673Z,18.40
2019-05-14T13:34:09.374Z,18.80
2019-05-14T13:36:39.728Z,18.30
2019-05-14T13:39:09.163Z,18.20
2019-05-14T13:41:41.537Z,18.10
2019-05-14T13:44:18.726Z,18.30
2019-05-14T13:46:35.782Z,18.00
2019-05-14T13:49:03.984Z,18.20
2019-05-14T13:51:33.533Z,18.20
2019-05-14T13:54:01.004Z,18.30
2019-05-14T13:56:28.670Z,18.30
2019-05-14T13:58:58.904Z,18.10
2019-05-14T14:01:26.104Z,18.10
2019-05-14T14:04:09.171Z,18.30
2019-05-14T14:06:23.450Z,18.60
2019-05-14T14:08:51.138Z,18.60
2019-05-14T14:11:19.425Z,18.50
2019-05-14T14:13:48.983Z,18.60
2019-05-14T14:16:19.190Z,18.70
2019-05-14T14:18:49.751Z,18.50
2019-05-14T14:21:15.882Z,18.80
2019-05-14T14:23:43.495Z,18.80
2019-05-14T14:26:11.129Z,18.40
2019-05-14T14:28:42.707Z,18.30
2019-05-14T14:31:11.126Z,18.40
2019-05-14T14:33:39.372Z,18.10
2019-05-14T14:36:07.506Z,18.00
2019-05-14T14:41:24.985Z,18.40
2019-05-14T14:46:42.692Z,18.40
2019-05-14T14:49:11.001Z,18.60
2019-05-14T14:51:44.517Z,18.50
2019-05-14T14:54:14.636Z,18.40
2019-05-14T14:56:38.027Z,18.60
2019-05-14T14:59:05.565Z,18.80
2019-05-14T15:01:33.180Z,18.40
2019-05-14T15:04:00.848Z,18.70
2019-05-14T15:06:30.558Z,18.70
2019-05-14T15:08:58.877Z,18.50
2019-05-14T15:11:29.607Z,18.20
2019-05-14T15:14:01.646Z,18.10
2019-05-14T15:16:29.750Z,18.40
2019-05-14T15:18:58.273Z,18.30
2019-05-14T15:21:26.022Z,18.30
2019-05-14T15:24:06.221Z,18.40
2019-05-14T15:26:23.596Z,18.20
2019-05-14T15:28:51.205Z,18.30
2019-05-14T15:31:19.226Z,18.20
2019-05-14T15:33:50.432Z,18.40
2019-05-14T15:36:19.405Z,18.10
2019-05-14T15:38:48.484Z,18.20
2019-05-14T15:41:15.487Z,18.20
2019-05-14T15:43:43.050Z,18.60
2019-05-14T15:46:26.199Z,18.70
2019-05-14T15:49:00.024Z,18.30
2019-05-14T15:54:58.695Z,17.80
2019-05-14T16:00:15.648Z,18.30
2019-05-14T16:02:45.604Z,18.60
2019-05-14T16:05:13.471Z,18.60
2019-05-14T16:07:43.881Z,18.30
2019-05-14T16:10:11.942Z,18.20
2019-05-14T16:12:40.203Z,18.10
2019-05-14T16:15:09.533Z,18.20
2019-05-14T16:17:48.351Z,18.10
2019-05-14T16:20:08.924Z,18.20
2019-05-14T16:22:39.967Z,18.20
2019-05-14T16:25:09.630Z,18.30
2019-05-14T16:27:39.518Z,18.50
2019-05-14T16:30:09.970Z,18.30
2019-05-14T16:32:39.428Z,18.60
2019-05-14T16:35:08.877Z,18.30
2019-05-14T16:37:43.517Z,18.00
2019-05-14T16:40:19.226Z,18.20
2019-05-14T16:42:54.826Z,18.40
2019-05-14T16:45:31.557Z,18.20
2019-05-14T16:48:05.773Z,18.20
2019-05-14T16:50:41.457Z,17.80
2019-05-14T16:53:16.004Z,17.70
2019-05-14T16:55:51.484Z,17.70
2019-05-14T16:58:25.703Z,17.80
2019-05-14T17:00:59.885Z,18.00
2019-05-14T17:03:34.498Z,17.50
2019-05-14T17:06:08.612Z,16.80
2019-05-14T17:08:43.699Z,16.50
2019-05-14T17:11:20.783Z,16.20
2019-05-14T17:13:58.008Z,16.10
2019-05-14T17:16:33.378Z,16.10
2019-05-14T17:19:09.279Z,16.00
2019-05-14T17:21:48.678Z,15.90
2019-05-14T17:24:25.018Z,15.80
2019-05-14T17:27:03.463Z,15.80
2019-05-14T17:29:39.537Z,15.70
2019-05-14T17:32:14.768Z,15.70
2019-05-14T17:34:55.066Z,15.70
2019-05-14T17:37:30.562Z,15.60
2019-05-14T17:40:05.274Z,15.60
2019-05-14T17:42:40.216Z,15.50
2019-05-14T17:45:15.223Z,15.50
2019-05-14T17:47:53.678Z,15.50
2019-05-14T17:50:29.850Z,15.40
2019-05-14T17:53:04.457Z,15.30
2019-05-14T17:55:46.595Z,15.30
2019-05-14T17:58:18.867Z,15.30
2019-05-14T18:00:58.134Z,15.30
2019-05-14T18:03:32.264Z,15.20
2019-05-14T18:06:09.262Z,15.20
2019-05-14T18:08:45.634Z,15.10
2019-05-14T18:11:23.922Z,15.10
2019-05-14T18:13:59.170Z,15.10
2019-05-14T18:16:33.888Z,15.10
2019-05-14T18:19:18.157Z,15.00
2019-05-14T18:21:52.734Z,15.00
2019-05-14T18:24:28.509Z,15.00
2019-05-14T18:27:03.658Z,14.90
2019-05-14T18:29:39.533Z,14.90
2019-05-14T18:32:15.638Z,14.80
2019-05-14T18:34:50.521Z,14.80
2019-05-14T18:37:25.613Z,14.70
2019-05-14T18:40:01.219Z,14.60
2019-05-14T18:42:39.075Z,14.50
2019-05-14T18:45:16.105Z,14.40
2019-05-14T18:47:53.235Z,14.10
2019-05-14T18:50:30.283Z,13.80
2019-05-14T18:53:09.047Z,13.60
2019-05-14T18:55:43.761Z,13.40
2019-05-14T18:58:19.549Z,13.20
2019-05-14T19:00:54.540Z,13.10
2019-05-14T19:03:31.359Z,13.00
2019-05-14T19:06:05.913Z,12.90
2019-05-14T19:08:40.603Z,12.80
2019-05-14T19:11:17.280Z,12.70
2019-05-14T19:13:52.208Z,12.60
2019-05-14T19:16:28.837Z,12.50
2019-05-14T19:19:03.449Z,12.40
2019-05-14T19:21:39.677Z,12.30
2019-05-14T19:24:15.635Z,12.30
2019-05-14T19:26:52.187Z,12.10
2019-05-14T19:29:28.143Z,12.10
2019-05-14T19:32:02.458Z,12.00
2019-05-14T19:34:38.269Z,11.90
2019-05-14T19:37:14.470Z,11.80
2019-05-14T19:39:50.267Z,11.70
2019-05-14T19:42:28.722Z,11.70
2019-05-14T19:45:08.464Z,11.60
2019-05-14T19:47:42.783Z,11.60
2019-05-14T19:50:18.708Z,11.50
2019-05-14T19:52:52.387Z,11.40
2019-05-14T19:55:32.479Z,11.30
2019-05-14T19:58:06.967Z,11.20
2019-05-14T20:00:42.149Z,11.20
2019-05-14T20:03:18.834Z,11.30
2019-05-14T20:05:54.309Z,11.20
2019-05-14T20:08:29.532Z,11.20
2019-05-14T20:11:05.398Z,11.30
2019-05-14T20:13:42.251Z,11.20
2019-05-14T20:16:18.572Z,11.20
2019-05-14T20:18:53.569Z,11.10
2019-05-14T20:21:29.421Z,11.00
2019-05-14T20:24:02.585Z,11.10
2019-05-14T20:26:38.959Z,11.00
2019-05-14T20:29:13.762Z,10.90
2019-05-14T20:31:50.751Z,10.90
2019-05-14T20:34:25.336Z,11.00
2019-05-14T20:36:59.773Z,10.90
2019-05-14T20:39:38.840Z,10.90
2019-05-14T20:42:13.915Z,10.90
2019-05-14T20:44:49.271Z,10.80
2019-05-14T20:47:32.879Z,10.70
2019-05-14T20:50:08.986Z,10.70
2019-05-14T20:52:43.335Z,10.60
2019-05-14T20:55:19.896Z,10.60
2019-05-14T20:57:55.384Z,10.60
2019-05-14T21:00:31.894Z,10.50
2019-05-14T21:03:08.787Z,10.50
2019-05-14T21:05:44.510Z,10.40
2019-05-14T21:08:19.052Z,10.30
2019-05-14T21:10:58.721Z,10.20
2019-05-14T21:13:39.046Z,10.10
2019-05-14T21:16:21.872Z,10.10
2019-05-14T21:19:01.884Z,10.10
2019-05-14T21:21:43.623Z,10.10
2019-05-14T21:24:29.274Z,10.10
2019-05-14T21:27:09.312Z,10.20
2019-05-14T21:29:49.018Z,10.30
2019-05-14T21:32:36.052Z,10.30
2019-05-14T21:35:13.796Z,10.30
2019-05-14T21:37:54.306Z,10.40
2019-05-14T21:40:34.628Z,10.50
2019-05-14T21:43:15.240Z,10.50
2019-05-14T21:45:54.998Z,10.40
2019-05-14T21:48:38.540Z,10.30
2019-05-14T21:51:20.140Z,10.20
2019-05-14T21:54:07.454Z,10.20
2019-05-14T21:56:50.345Z,10.10
2019-05-14T21:59:33.584Z,10.10
2019-05-14T22:02:26.924Z,10.30
2019-05-14T22:05:02.098Z,10.50
2019-05-14T22:07:40.099Z,10.60
2019-05-14T22:10:15.494Z,10.60
2019-05-14T22:12:50.170Z,10.60
2019-05-14T22:15:25.687Z,10.60
2019-05-14T22:17:59.971Z,10.50
2019-05-14T22:20:34.245Z,10.40
2019-05-14T22:23:09.907Z,10.20
2019-05-14T22:25:44.167Z,10.00
2019-05-14T22:28:19.057Z,10.00
2019-05-14T22:30:54.714Z,9.90
2019-05-14T22:33:29.210Z,10.00
2019-05-14T22:36:03.713Z,10.00
2019-05-14T22:38:48.478Z,10.10
2019-05-14T22:41:24.001Z,10.10
2019-05-14T22:43:59.952Z,10.00
2019-05-14T22:46:34.375Z,10.00
2019-05-14T22:49:10.623Z,9.80
2019-05-14T22:51:45.166Z,9.60
2019-05-14T22:54:20.922Z,9.40
2019-05-14T22:56:55.406Z,9.20
2019-05-14T22:59:29.705Z,9.00
2019-05-14T23:02:04.279Z,9.00
2019-05-14T23:04:39.651Z,8.90
2019-05-14T23:07:13.948Z,8.90
2019-05-14T23:09:48.534Z,9.00
2019-05-14T23:12:25.013Z,8.90
2019-05-14T23:15:01.603Z,8.80
2019-05-14T23:17:38.923Z,8.70
2019-05-14T23:20:13.947Z,8.70
2019-05-14T23:22:49.171Z,8.70
2019-05-14T23:25:25.991Z,8.70
2019-05-14T23:28:00.549Z,8.60
2019-05-14T23:30:38.981Z,8.60
2019-05-14T23:33:14.725Z,8.50
2019-05-14T23:35:51.366Z,8.50
2019-05-14T23:38:25.869Z,8.40
2019-05-14T23:41:03.117Z,8.30
2019-05-14T23:43:39.841Z,8.30
2019-05-14T23:46:18.332Z,8.40
2019-05-14T23:48:52.909Z,8.50
2019-05-14T23:51:29.004Z,8.50
2019-05-14T23:54:03.672Z,8.50
2019-05-14T23:56:38.455Z,8.60
2019-05-14T23:59:13.161Z,8.70
